Time;durP1;ratioP1;P1;durP2;ratioP2;P2;SDS_P1;SDS_P2;PMS_P1;PMS_P2;Temp;Humidity;BMP_temperature;BMP_pressure;BME280_temperature;BME280_humidity;BME280_pressure;Samples;Min_cycle;Max_cycle;Signal;HPM_P1;HPM_P2
2022/02/09 00:05:21;;;;;;;21.70;9.40;;;6.60;99.70;;;;;;5032430;28;20420;-64
2022/02/09 00:07:58;;;;;;;24.70;9.80;;;6.50;99.70;;;;;;5032416;28;20826;-61
2022/02/09 00:10:26;;;;;;;24.30;11.10;;;6.60;99.70;;;;;;5032451;28;20518;-64
2022/02/09 00:13:06;;;;;;;26.20;9.10;;;6.70;99.70;;;;;;5032438;28;20503;-64
2022/02/09 00:15:39;;;;;;;22.63;8.63;;;6.70;99.70;;;;;;5032255;28;20444;-65
2022/02/09 00:18:14;;;;;;;18.60;8.00;;;6.70;99.70;;;;;;5031911;28;20448;-64
2022/02/09 00:21:12;;;;;;;18.07;8.30;;;6.70;99.70;;;;;;5032298;28;20570;-64
2022/02/09 00:27:05;;;;;;;20.77;7.90;;;6.80;99.70;;;;;;5031932;28;20971;-65
2022/02/09 00:29:46;;;;;;;18.83;7.40;;;6.90;99.70;;;;;;5031698;28;20436;-64
2022/02/09 00:32:49;;;;;;;19.33;8.07;;;6.80;99.70;;;;;;5032051;28;20634;-65
2022/02/09 00:35:50;;;;;;;21.57;7.50;;;6.80;99.70;;;;;;5031626;28;20456;-64
2022/02/09 00:44:01;;;;;;;23.77;9.60;;;6.80;99.70;;;;;;5049765;28;20817;-60
2022/02/09 01:11:38;;;;;;;16.30;5.83;;;6.90;99.70;;;;;;5051413;28;20636;-64
2022/02/09 01:39:14;;;;;;;16.17;5.60;;;6.80;99.70;;;;;;5050951;28;20481;-64
2022/02/09 01:55:39;;;;;;;12.30;6.03;;;6.90;99.70;;;;;;5054699;28;20482;-65
2022/02/09 01:58:06;;;;;;;14.60;5.63;;;6.80;99.70;;;;;;5054809;28;20475;-64
2022/02/09 02:00:34;;;;;;;12.67;5.27;;;6.80;99.70;;;;;;5054750;28;20459;-65
2022/02/09 02:03:01;;;;;;;12.93;5.63;;;6.80;99.70;;;;;;5054839;28;20454;-65
2022/02/09 02:05:29;;;;;;;12.93;5.37;;;6.90;99.70;;;;;;5054604;28;20440;-61
2022/02/09 02:07:57;;;;;;;13.90;5.77;;;6.80;99.70;;;;;;5054518;28;20453;-65
2022/02/09 02:10:31;;;;;;;10.57;4.60;;;6.80;99.70;;;;;;5054567;28;20499;-64
2022/02/09 02:13:12;;;;;;;14.37;5.43;;;6.80;99.70;;;;;;5054503;28;20511;-63
2022/02/09 02:18:25;;;;;;;20.00;5.20;;;6.90;99.70;;;;;;5054443;28;20423;-62
2022/02/09 02:21:04;;;;;;;10.03;4.73;;;6.90;99.70;;;;;;5054656;28;20468;-64
2022/02/09 02:23:48;;;;;;;10.27;4.10;;;6.90;99.70;;;;;;5054397;28;20439;-63
2022/02/09 02:26:26;;;;;;;8.97;4.40;;;6.90;99.70;;;;;;5054130;28;20482;-65
2022/02/09 02:29:13;;;;;;;8.63;4.90;;;6.90;99.70;;;;;;5054042;28;20481;-61
2022/02/09 02:32:12;;;;;;;7.83;4.50;;;6.90;99.70;;;;;;5054259;28;20899;-64
2022/02/09 02:57:11;;;;;;;7.83;3.40;;;6.90;99.70;;;;;;5032993;28;20803;-62
2022/02/09 02:59:47;;;;;;;7.47;3.60;;;6.90;99.70;;;;;;5033602;28;20472;-64
2022/02/09 03:11:16;;;;;;;13.80;3.70;;;7.10;99.70;;;;;;5109200;27;20526;-64
2022/02/09 03:13:52;;;;;;;7.67;3.33;;;7.00;99.70;;;;;;5109003;28;20444;-65
2022/02/09 03:16:28;;;;;;;9.57;3.70;;;7.10;99.70;;;;;;5108287;28;20471;-63
2022/02/09 03:19:22;;;;;;;7.80;3.30;;;7.10;99.70;;;;;;5108974;28;20440;-64
2022/02/09 03:22:00;;;;;;;6.70;3.23;;;7.20;99.70;;;;;;5108987;28;20521;-64
2022/02/09 03:24:38;;;;;;;6.17;3.13;;;7.30;99.70;;;;;;5108875;28;20455;-62
2022/02/09 03:27:33;;;;;;;7.17;3.20;;;7.30;99.70;;;;;;5108652;28;20445;-64
2022/02/09 03:44:04;;;;;;;7.70;3.07;;;7.20;99.70;;;;;;5108570;28;20466;-63
2022/02/09 03:46:51;;;;;;;7.00;2.80;;;7.20;99.70;;;;;;5108287;28;20441;-65
2022/02/09 03:49:33;;;;;;;7.10;2.87;;;7.20;99.70;;;;;;5108212;28;20473;-65
2022/02/09 03:52:08;;;;;;;6.27;3.00;;;7.10;99.70;;;;;;5108384;28;20550;-64
2022/02/09 03:54:39;;;;;;;8.83;4.00;;;7.20;99.70;;;;;;5108267;28;20445;-65
2022/02/09 03:57:22;;;;;;;10.60;3.90;;;7.10;99.70;;;;;;5108081;28;20481;-66
2022/02/09 03:59:50;;;;;;;9.57;4.13;;;6.90;99.70;;;;;;5107075;28;20461;-66
2022/02/09 04:02:16;;;;;;;8.23;4.03;;;6.90;99.70;;;;;;5108273;28;20846;-64
2022/02/09 04:04:46;;;;;;;8.97;3.53;;;6.80;99.70;;;;;;5108060;28;20445;-65
2022/02/09 04:07:13;;;;;;;11.57;4.10;;;6.70;99.70;;;;;;5108085;28;21001;-65
2022/02/09 04:09:45;;;;;;;8.67;3.73;;;6.70;99.70;;;;;;5107659;28;20485;-65
2022/02/09 04:12:26;;;;;;;9.70;3.73;;;6.70;99.70;;;;;;5108077;28;20448;-64
2022/02/09 04:14:59;;;;;;;7.97;3.90;;;6.60;99.70;;;;;;5107822;28;20441;-64
2022/02/09 04:17:33;;;;;;;7.93;3.80;;;6.60;99.70;;;;;;5107552;28;20441;-64
2022/02/09 04:20:23;;;;;;;9.97;4.30;;;6.60;99.70;;;;;;5107681;28;20468;-64
2022/02/09 04:36:36;;;;;;;8.90;3.90;;;6.60;99.70;;;;;;5093543;28;20997;-63
2022/02/09 04:39:11;;;;;;;7.40;3.70;;;6.60;99.70;;;;;;5093859;28;20445;-63
2022/02/09 04:42:01;;;;;;;12.30;4.90;;;6.60;99.70;;;;;;5093949;28;20449;-64
2022/02/09 04:44:50;;;;;;;7.17;3.87;;;6.50;99.70;;;;;;5093943;28;20442;-64
2022/02/09 04:47:35;;;;;;;12.10;4.20;;;6.50;99.70;;;;;;5094023;28;20929;-63
2022/02/09 04:53:20;;;;;;;9.70;3.90;;;6.50;99.70;;;;;;5093595;28;20472;-63
2022/02/09 04:55:58;;;;;;;7.60;3.90;;;6.50;99.70;;;;;;5093407;28;20818;-64
2022/02/09 04:58:38;;;;;;;10.17;3.60;;;6.50;99.70;;;;;;5093595;28;20951;-64
2022/02/09 05:01:12;;;;;;;8.17;3.60;;;6.50;99.70;;;;;;5093566;28;20462;-64
2022/02/09 05:23:21;;;;;;;8.47;4.20;;;6.30;99.70;;;;;;5093036;28;20424;-63
2022/02/09 05:25:50;;;;;;;9.83;4.50;;;6.40;99.70;;;;;;5092807;28;20438;-63
2022/02/09 05:28:18;;;;;;;10.00;4.53;;;6.40;99.70;;;;;;5092707;28;20476;-64
2022/02/09 05:30:47;;;;;;;10.47;4.33;;;6.50;99.70;;;;;;5092724;28;20481;-63
2022/02/09 05:33:14;;;;;;;12.37;5.13;;;6.40;99.70;;;;;;5092027;28;20433;-63
2022/02/09 05:35:43;;;;;;;8.13;3.80;;;6.50;99.70;;;;;;5092476;28;20441;-64
2022/02/09 05:38:10;;;;;;;8.93;4.60;;;6.50;99.70;;;;;;5092603;28;20533;-63
2022/02/09 05:40:37;;;;;;;13.30;3.90;;;6.50;99.70;;;;;;5092586;28;20458;-63
2022/02/09 05:43:04;;;;;;;9.60;4.10;;;6.50;99.70;;;;;;5092756;28;20789;-63
2022/02/09 05:45:42;;;;;;;12.10;4.77;;;6.60;99.70;;;;;;5092401;28;20442;-63
2022/02/09 05:49:11;;;;;;;14.47;4.90;;;6.60;99.70;;;;;;5092543;28;20441;-63
2022/02/09 05:51:30;;;;;;;11.73;5.20;;;6.40;99.70;;;;;;5079279;28;20523;-65
2022/02/09 05:54:17;;;;;;;13.60;5.27;;;6.40;99.70;;;;;;5077853;28;20512;-62
2022/02/09 05:56:47;;;;;;;12.10;5.30;;;6.50;99.70;;;;;;5081772;28;21031;-63
2022/02/09 05:59:28;;;;;;;10.53;4.97;;;6.40;99.70;;;;;;5077742;28;20559;-64
2022/02/09 06:01:55;;;;;;;13.73;6.50;;;6.40;99.70;;;;;;5077486;28;20486;-63
2022/02/09 06:04:22;;;;;;;9.87;5.13;;;6.40;99.70;;;;;;5078613;28;20462;-64
2022/02/09 06:06:50;;;;;;;9.67;4.87;;;6.40;99.70;;;;;;5080321;28;20880;-64
2022/02/09 06:09:17;;;;;;;10.87;4.80;;;6.20;99.70;;;;;;5082563;28;20473;-63
2022/02/09 06:11:48;;;;;;;12.33;4.83;;;6.20;99.70;;;;;;5084067;28;20503;-63
2022/02/09 06:14:25;;;;;;;11.23;5.07;;;6.10;99.70;;;;;;5079115;28;20455;-64
2022/02/09 06:19:43;;;;;;;12.60;4.80;;;6.10;99.70;;;;;;5089753;28;20464;-62
2022/02/09 06:22:11;;;;;;;14.10;5.23;;;6.20;99.70;;;;;;5089812;28;20457;-63
2022/02/09 06:24:41;;;;;;;13.47;4.80;;;6.20;99.70;;;;;;5089537;28;20442;-63
2022/02/09 06:27:08;;;;;;;13.53;5.27;;;6.10;99.70;;;;;;5089485;28;20450;-64
2022/02/09 06:29:35;;;;;;;11.30;5.10;;;6.20;99.70;;;;;;5089617;28;20461;-64
2022/02/09 06:32:08;;;;;;;13.73;4.80;;;6.00;99.70;;;;;;5089636;28;20442;-64
2022/02/09 06:34:35;;;;;;;13.70;5.30;;;6.00;99.70;;;;;;5090240;28;20522;-64
2022/02/09 06:37:11;;;;;;;13.00;5.07;;;5.80;99.70;;;;;;5091341;28;20442;-64
2022/02/09 06:39:40;;;;;;;11.13;5.10;;;5.90;99.70;;;;;;5091448;28;20468;-64
2022/02/09 06:42:07;;;;;;;12.33;5.00;;;5.80;99.70;;;;;;5091354;28;20469;-64
2022/02/09 06:44:34;;;;;;;11.60;5.07;;;5.90;99.70;;;;;;5091321;28;20450;-63
2022/02/09 06:47:01;;;;;;;10.30;4.90;;;5.90;99.70;;;;;;5091091;28;20442;-64
2022/02/09 06:49:29;;;;;;;11.43;5.10;;;5.90;99.70;;;;;;5091328;28;20437;-63
2022/02/09 06:51:56;;;;;;;9.90;5.40;;;5.80;99.70;;;;;;5081711;28;20454;-64
2022/02/09 06:54:28;;;;;;;12.40;5.53;;;5.80;99.70;;;;;;5081491;28;20440;-63
2022/02/09 06:57:03;;;;;;;16.83;6.30;;;5.90;99.70;;;;;;5072809;28;20493;-63
2022/02/09 06:59:30;;;;;;;13.03;6.00;;;5.80;99.70;;;;;;5070899;28;20517;-64
2022/02/09 07:01:59;;;;;;;13.33;5.87;;;5.80;99.70;;;;;;5070843;28;20434;-64
2022/02/09 07:04:26;;;;;;;13.90;6.17;;;6.00;99.70;;;;;;5071058;28;20598;-64
2022/02/09 07:06:55;;;;;;;12.17;5.20;;;5.80;99.70;;;;;;5070770;28;20492;-64
2022/02/09 07:09:22;;;;;;;14.47;5.90;;;5.90;99.70;;;;;;5085780;28;20949;-63
2022/02/09 07:11:48;;;;;;;13.03;5.60;;;5.90;99.70;;;;;;5090950;28;20478;-63
2022/02/09 07:14:21;;;;;;;9.63;4.87;;;5.80;99.70;;;;;;5091270;28;20761;-64
2022/02/09 07:16:47;;;;;;;11.27;5.87;;;5.70;99.70;;;;;;5090080;28;20937;-63
2022/02/09 07:19:14;;;;;;;14.43;5.10;;;5.70;99.70;;;;;;5091146;28;20829;-63
2022/02/09 07:21:42;;;;;;;14.83;5.93;;;5.50;99.70;;;;;;5091074;28;20434;-64
2022/02/09 07:24:12;;;;;;;12.30;5.83;;;5.50;99.70;;;;;;5091058;28;20446;-64
2022/02/09 07:26:48;;;;;;;12.13;5.20;;;5.50;99.70;;;;;;5073656;28;20851;-63
2022/02/09 07:29:18;;;;;;;11.63;5.23;;;5.50;99.70;;;;;;5070683;28;20553;-64
2022/02/09 07:31:45;;;;;;;14.27;5.97;;;5.50;99.70;;;;;;5070646;28;20518;-64
2022/02/09 07:34:13;;;;;;;15.43;6.27;;;5.40;99.70;;;;;;5071020;28;20803;-64
2022/02/09 07:36:45;;;;;;;13.43;6.23;;;5.40;99.70;;;;;;5070706;28;20481;-64
2022/02/09 07:39:12;;;;;;;14.97;6.30;;;5.40;99.70;;;;;;5070826;28;20839;-65
2022/02/09 07:41:42;;;;;;;13.67;6.50;;;5.50;99.70;;;;;;5069391;28;20443;-64
2022/02/09 07:44:19;;;;;;;14.53;6.93;;;5.40;99.70;;;;;;5070741;28;20486;-64
2022/02/09 07:47:05;;;;;;;14.03;5.40;;;5.50;99.70;;;;;;5070533;28;20449;-64
2022/02/09 07:49:50;;;;;;;11.70;5.50;;;5.40;99.70;;;;;;5070645;28;20453;-63
2022/02/09 07:52:23;;;;;;;15.30;5.80;;;5.40;99.70;;;;;;5070123;28;20437;-63
2022/02/09 07:54:50;;;;;;;14.93;6.33;;;5.40;99.70;;;;;;5070536;28;20954;-63
2022/02/09 07:57:17;;;;;;;11.77;5.10;;;5.40;99.70;;;;;;5074148;28;20446;-61
2022/02/09 07:59:43;;;;;;;9.80;4.73;;;5.40;99.70;;;;;;5088740;28;20450;-64
2022/02/09 08:02:11;;;;;;;10.87;4.87;;;5.50;99.70;;;;;;5084512;28;20450;-63
2022/02/09 08:04:38;;;;;;;10.90;4.70;;;5.50;99.70;;;;;;5072969;28;20508;-63
2022/02/09 08:07:05;;;;;;;12.23;4.77;;;5.60;99.70;;;;;;5072534;28;20822;-64
2022/02/09 08:09:36;;;;;;;10.50;5.07;;;5.60;99.70;;;;;;5072450;28;20450;-63
2022/02/09 08:12:29;;;;;;;9.97;4.80;;;5.80;99.70;;;;;;5072730;28;20490;-63
2022/02/09 08:26:41;;;;;;;10.80;4.60;;;7.50;99.70;;;;;;5094215;28;20445;-63
2022/02/09 08:29:16;;;;;;;14.03;4.90;;;7.00;99.70;;;;;;5092663;28;20469;-63
2022/02/09 08:34:28;;;;;;;12.20;5.00;;;6.80;99.70;;;;;;5094014;28;20414;-64
2022/02/09 08:36:56;;;;;;;10.17;5.30;;;6.50;99.70;;;;;;5093805;28;20449;-63
2022/02/09 08:39:24;;;;;;;9.53;4.30;;;6.40;99.70;;;;;;5093882;28;20446;-64
2022/02/09 08:41:52;;;;;;;9.63;4.70;;;6.40;99.70;;;;;;5093968;28;20449;-64
2022/02/09 08:44:19;;;;;;;8.20;4.33;;;6.30;99.70;;;;;;5093717;28;20537;-64
2022/02/09 08:46:46;;;;;;;9.83;4.43;;;6.40;99.70;;;;;;5093658;28;20442;-64
2022/02/09 08:49:14;;;;;;;9.40;4.50;;;6.40;99.70;;;;;;5093642;28;20454;-64
2022/02/09 08:51:43;;;;;;;10.90;4.60;;;6.50;99.70;;;;;;5093505;28;20556;-64
2022/02/09 08:54:11;;;;;;;12.30;4.87;;;6.60;99.70;;;;;;5094323;28;20445;-63
2022/02/09 08:56:38;;;;;;;12.67;4.60;;;6.50;99.70;;;;;;5094837;28;20449;-64
2022/02/09 08:59:07;;;;;;;8.83;3.77;;;6.40;99.70;;;;;;5093483;28;20442;-63
2022/02/09 09:01:37;;;;;;;9.17;4.03;;;6.60;99.70;;;;;;5093578;28;20473;-64
2022/02/09 09:04:13;;;;;;;12.53;4.73;;;6.70;99.70;;;;;;5093451;28;20474;-64
2022/02/09 09:06:42;;;;;;;10.77;4.70;;;6.80;99.70;;;;;;5093099;28;20442;-63
2022/02/09 09:15:34;;;;;;;13.10;5.23;;;6.70;99.70;;;;;;5093410;28;20976;-64
2022/02/09 10:05:41;;;;;;;16.63;5.63;;;11.50;99.70;;;;;;5089094;28;20434;-62
2022/02/09 10:33:18;;;;;;;11.30;5.50;;;9.40;99.70;;;;;;5011739;28;20479;-64
2022/02/09 10:35:59;;;;;;;8.70;4.23;;;9.30;99.70;;;;;;5011671;28;20453;-65
2022/02/09 10:38:29;;;;;;;9.40;4.40;;;9.40;99.70;;;;;;5011671;28;20442;-65
2022/02/09 10:41:08;;;;;;;10.43;4.70;;;9.50;99.70;;;;;;5011723;28;20513;-65
2022/02/09 10:43:36;;;;;;;12.17;4.67;;;9.40;99.70;;;;;;5011698;28;21042;-65
2022/02/09 10:46:11;;;;;;;8.30;4.13;;;9.30;99.70;;;;;;5011644;28;20796;-65
2022/02/09 10:48:48;;;;;;;11.07;4.20;;;9.40;99.70;;;;;;5011681;28;20453;-65
2022/02/09 10:51:24;;;;;;;9.73;4.07;;;9.40;99.70;;;;;;5011513;28;21000;-65
2022/02/09 10:54:11;;;;;;;9.87;4.33;;;9.40;99.70;;;;;;5011664;28;20839;-64
2022/02/09 10:56:40;;;;;;;7.53;4.30;;;9.40;99.70;;;;;;5011277;28;20929;-65
2022/02/09 10:59:09;;;;;;;10.27;4.43;;;9.40;99.70;;;;;;5011463;28;20507;-65
2022/02/09 11:01:36;;;;;;;9.70;4.50;;;9.40;99.70;;;;;;5011367;28;20449;-65
2022/02/09 11:04:05;;;;;;;9.97;4.63;;;9.40;99.70;;;;;;5011347;28;20473;-65
2022/02/09 11:06:34;;;;;;;11.80;4.10;;;9.50;99.70;;;;;;5011279;28;20452;-65
2022/02/09 11:09:02;;;;;;;9.93;4.60;;;9.50;99.70;;;;;;5011221;28;20453;-64
2022/02/09 11:11:30;;;;;;;11.10;4.60;;;9.40;99.70;;;;;;5011324;28;20512;-65
2022/02/09 11:13:57;;;;;;;8.23;4.83;;;9.30;99.70;;;;;;5011225;28;20838;-65
2022/02/09 11:16:25;;;;;;;8.23;4.00;;;9.30;99.70;;;;;;5010711;28;20446;-65
2022/02/09 11:18:54;;;;;;;11.20;4.80;;;9.30;99.70;;;;;;5011180;28;20473;-65
2022/02/09 11:21:29;;;;;;;8.40;4.20;;;9.30;99.70;;;;;;5010866;28;20477;-64
2022/02/09 11:23:58;;;;;;;9.77;4.83;;;9.40;99.70;;;;;;5011117;28;20473;-65
2022/02/09 11:26:38;;;;;;;8.00;3.90;;;9.40;99.70;;;;;;5011020;28;20489;-65
2022/02/09 11:29:26;;;;;;;10.00;4.10;;;9.50;99.70;;;;;;5011139;28;20457;-65
2022/02/09 11:32:17;;;;;;;10.70;4.60;;;9.40;99.70;;;;;;5013367;28;20481;-65
2022/02/09 11:35:12;;;;;;;8.87;3.83;;;9.40;99.70;;;;;;5015295;28;20450;-65
2022/02/09 11:37:59;;;;;;;7.03;3.60;;;9.50;99.70;;;;;;5015105;28;20828;-65
2022/02/09 11:40:35;;;;;;;10.60;4.10;;;9.50;99.70;;;;;;5014971;28;20481;-65
2022/02/09 11:43:40;;;;;;;9.60;4.00;;;9.70;99.70;;;;;;5015327;28;20457;-65
2022/02/09 11:46:25;;;;;;;6.53;3.50;;;9.70;99.70;;;;;;5014788;28;20956;-65
2022/02/09 11:55:00;;;;;;;11.03;5.53;;;9.60;99.70;;;;;;5003689;28;20464;-65
2022/02/09 12:00:55;;;;;;;10.07;4.10;;;10.00;99.70;;;;;;5014768;28;20445;-65
2022/02/09 12:09:35;;;;;;;7.50;3.60;;;10.00;99.70;;;;;;5014528;28;20417;-64
2022/02/09 12:12:08;;;;;;;7.03;4.10;;;10.00;99.70;;;;;;5014108;28;20841;-65
2022/02/09 12:14:51;;;;;;;8.80;4.23;;;9.90;99.70;;;;;;5014483;28;20460;-65
2022/02/09 12:17:30;;;;;;;6.10;3.87;;;10.00;99.70;;;;;;5011086;28;20483;-65
2022/02/09 12:20:07;;;;;;;7.80;3.40;;;10.20;99.70;;;;;;5010221;28;21020;-65
2022/02/09 12:22:43;;;;;;;6.90;3.50;;;10.30;99.70;;;;;;5010525;28;20473;-65
2022/02/09 12:25:10;;;;;;;8.80;3.57;;;10.30;99.70;;;;;;5012376;28;20448;-65
2022/02/09 12:27:38;;;;;;;7.73;3.70;;;10.30;99.70;;;;;;5011007;28;20450;-64
2022/02/09 12:30:10;;;;;;;9.23;4.03;;;10.50;99.70;;;;;;5012422;28;20933;-65
2022/02/09 12:32:38;;;;;;;8.70;3.50;;;10.60;99.70;;;;;;5009083;28;20543;-64
2022/02/09 12:35:06;;;;;;;8.63;3.17;;;10.60;99.70;;;;;;5006504;28;20477;-64
2022/02/09 12:37:35;;;;;;;9.23;3.90;;;10.50;99.70;;;;;;5007422;28;20449;-65
2022/02/09 12:40:05;;;;;;;9.13;3.93;;;10.50;99.70;;;;;;5004573;28;20950;-64
2022/02/09 12:42:33;;;;;;;7.43;3.20;;;10.60;99.70;;;;;;4996113;28;20842;-65
2022/02/09 12:45:05;;;;;;;6.33;2.93;;;10.70;99.70;;;;;;4995125;28;20505;-65
2022/02/09 12:47:34;;;;;;;5.83;3.00;;;10.60;99.70;;;;;;4996865;28;20449;-64
2022/02/09 12:50:04;;;;;;;6.10;3.00;;;10.70;99.70;;;;;;4995220;28;20450;-65
2022/02/09 12:52:34;;;;;;;9.33;2.87;;;10.80;99.70;;;;;;4996405;28;20485;-65
2022/02/09 12:55:04;;;;;;;7.97;3.17;;;10.80;99.70;;;;;;4994942;28;20458;-64
2022/02/09 12:57:35;;;;;;;7.50;3.00;;;10.80;99.70;;;;;;4996258;28;20941;-65
2022/02/09 13:00:04;;;;;;;7.63;3.23;;;10.80;99.70;;;;;;4994838;28;20458;-66
2022/02/09 13:02:45;;;;;;;6.60;3.10;;;10.70;99.70;;;;;;4996239;28;20469;-64
2022/02/09 13:05:12;;;;;;;6.20;2.90;;;10.90;99.70;;;;;;4994932;28;20520;-64
2022/02/09 13:07:39;;;;;;;5.07;2.63;;;11.00;99.70;;;;;;4996278;28;20504;-64
2022/02/09 13:10:08;;;;;;;6.27;2.40;;;11.00;99.70;;;;;;4995134;28;20508;-65
2022/02/09 13:12:41;;;;;;;10.23;3.00;;;11.00;99.70;;;;;;4996168;28;20485;-65
2022/02/09 13:15:17;;;;;;;4.93;2.50;;;10.90;99.70;;;;;;4994000;28;20857;-65
2022/02/09 13:17:57;;;;;;;4.33;2.53;;;11.00;99.70;;;;;;4996327;28;20494;-65
2022/02/09 13:23:38;;;;;;;4.63;2.40;;;10.80;99.70;;;;;;5000572;28;20465;-65
2022/02/09 14:11:28;;;;;;;3.40;1.90;;;11.70;99.70;;;;;;5007052;28;20552;-65
2022/02/09 14:14:10;;;;;;;7.07;2.67;;;11.80;99.70;;;;;;5007593;28;20564;-62
2022/02/09 14:47:34;;;;;;;4.60;2.00;;;12.00;99.70;;;;;;5011185;28;20488;-65
2022/02/09 14:52:52;;;;;;;5.50;2.10;;;12.00;99.70;;;;;;5016076;28;20486;-65
2022/02/09 14:55:30;;;;;;;4.50;2.00;;;11.90;99.70;;;;;;5031273;28;20448;-67
2022/02/09 14:58:07;;;;;;;4.83;2.17;;;11.90;99.70;;;;;;5031558;28;20456;-67
2022/02/09 15:00:38;;;;;;;3.70;1.93;;;11.90;99.70;;;;;;5002136;28;20472;-67
2022/02/09 15:03:19;;;;;;;4.87;2.17;;;11.90;99.70;;;;;;5001608;28;20846;-67
2022/02/09 15:08:43;;;;;;;6.10;2.20;;;11.70;99.70;;;;;;4983273;28;20420;-67
2022/02/09 15:11:17;;;;;;;5.27;2.20;;;11.70;99.70;;;;;;5001473;28;20442;-68
2022/02/09 15:13:57;;;;;;;4.63;2.20;;;11.90;99.70;;;;;;4999361;28;20919;-68
2022/02/09 15:16:28;;;;;;;3.83;2.10;;;11.80;99.70;;;;;;5000397;28;20827;-67
2022/02/09 15:19:21;;;;;;;5.50;2.00;;;11.70;99.70;;;;;;5000254;28;20453;-68
2022/02/09 15:22:01;;;;;;;3.53;1.93;;;11.50;99.70;;;;;;5000207;28;20439;-68
2022/02/09 15:24:35;;;;;;;4.27;1.90;;;11.40;99.70;;;;;;4995646;28;20442;-64
2022/02/09 15:27:04;;;;;;;3.00;1.80;;;11.10;99.70;;;;;;4988916;28;20450;-66
2022/02/09 15:29:31;;;;;;;5.97;1.83;;;10.90;99.70;;;;;;4996641;28;20437;-66
2022/02/09 15:32:01;;;;;;;4.70;1.77;;;10.70;99.70;;;;;;5000555;28;20936;-67
2022/02/09 15:34:31;;;;;;;3.83;1.80;;;10.60;99.70;;;;;;4996020;28;20540;-66
2022/02/09 15:37:08;;;;;;;6.70;2.00;;;10.70;99.70;;;;;;4999976;28;20607;-66
2022/02/09 15:39:39;;;;;;;7.30;2.07;;;10.60;99.70;;;;;;5000249;28;20454;-67
2022/02/09 15:42:30;;;;;;;4.87;2.23;;;10.50;99.70;;;;;;5002249;28;20439;-67
2022/02/09 16:09:37;;;;;;;7.70;2.70;;;9.40;99.70;;;;;;4990747;28;20506;-67
2022/02/09 16:18:34;;;;;;;5.53;3.10;;;9.10;99.70;;;;;;5011757;28;20429;-66
2022/02/09 16:23:28;;;;;;;5.77;2.63;;;9.00;99.70;;;;;;5010234;28;20900;-66
2022/02/09 16:37:42;;;;;;;10.70;3.30;;;8.50;99.70;;;;;;5127928;27;20560;-67
2022/02/09 16:45:50;;;;;;;16.90;4.20;;;8.40;99.70;;;;;;5103050;28;20495;-67
2022/02/09 16:48:18;;;;;;;16.57;5.37;;;8.30;99.70;;;;;;5110480;28;20891;-67
2022/02/09 16:50:49;;;;;;;22.37;6.90;;;8.20;99.70;;;;;;5102104;28;20446;-66
2022/02/09 16:53:36;;;;;;;17.93;6.17;;;8.20;99.70;;;;;;5105852;28;20513;-67
2022/02/09 17:15:35;;;;;;;66.60;25.90;;;7.50;99.70;;;;;;5105625;28;20479;-68
2022/02/09 17:20:46;;;;;;;52.70;21.67;;;7.40;99.70;;;;;;5108121;28;20482;-68
2022/02/09 17:23:13;;;;;;;53.87;23.27;;;7.30;99.70;;;;;;5100059;28;21067;-66
2022/02/09 17:25:41;;;;;;;43.17;18.57;;;7.20;99.70;;;;;;5137840;22;20570;-69
2022/02/09 17:28:10;;;;;;;38.43;15.80;;;7.20;99.70;;;;;;5105219;28;20441;-69
2022/02/09 17:30:58;;;;;;;35.87;15.20;;;7.10;99.70;;;;;;5106957;28;20448;-69
2022/02/09 17:36:17;;;;;;;25.73;12.77;;;7.00;99.70;;;;;;5098344;28;20910;-69
2022/02/09 17:38:50;;;;;;;28.93;11.87;;;7.00;99.70;;;;;;5128170;28;20452;-69
2022/02/09 17:57:46;;;;;;;27.57;13.53;;;6.70;99.70;;;;;;5107671;28;20424;-68
2022/02/09 18:00:15;;;;;;;26.37;11.40;;;6.60;99.70;;;;;;5112226;28;20929;-69
2022/02/09 18:02:44;;;;;;;22.53;10.47;;;6.60;99.70;;;;;;5109830;28;20462;-69
2022/02/09 18:05:17;;;;;;;23.07;9.80;;;6.60;99.70;;;;;;5092375;28;20450;-68
2022/02/09 18:07:47;;;;;;;34.70;14.20;;;6.50;99.70;;;;;;5100415;28;20473;-68
2022/02/09 18:10:23;;;;;;;30.77;13.67;;;6.40;99.70;;;;;;5112769;28;20436;-68
2022/02/09 18:13:15;;;;;;;31.90;14.00;;;6.40;99.70;;;;;;5112977;28;20859;-69
2022/02/09 18:16:07;;;;;;;31.40;12.80;;;6.40;99.70;;;;;;5112505;28;20564;-68
2022/02/09 18:29:56;;;;;;;37.77;15.10;;;6.50;99.70;;;;;;5113379;28;20512;-69
2022/02/09 18:38:25;;;;;;;27.90;12.40;;;6.40;99.70;;;;;;5072644;28;20852;-68
2022/02/09 18:43:47;;;;;;;30.87;11.47;;;6.30;99.70;;;;;;5083666;28;20445;-69
2022/02/09 18:46:24;;;;;;;28.07;11.63;;;6.30;99.70;;;;;;5091253;28;20445;-68
2022/02/09 18:56:52;;;;;;;33.73;14.10;;;6.20;99.70;;;;;;5091627;28;20507;-69
2022/02/09 19:00:09;;;;;;;47.53;17.40;;;6.10;99.70;;;;;;5089735;28;20426;-69
2022/02/09 19:02:45;;;;;;;40.23;15.17;;;6.30;99.70;;;;;;5092387;28;20445;-69
2022/02/09 19:05:24;;;;;;;36.70;14.77;;;6.30;99.70;;;;;;5091445;28;20448;-69
2022/02/09 19:08:11;;;;;;;34.30;11.93;;;6.20;99.70;;;;;;5091350;28;20446;-69
2022/02/09 19:19:10;;;;;;;30.37;11.57;;;6.00;99.70;;;;;;5064647;28;20438;-69
2022/02/09 19:27:23;;;;;;;20.13;8.37;;;5.80;99.70;;;;;;5091656;28;20444;-68
2022/02/09 19:30:00;;;;;;;21.27;9.57;;;5.80;99.70;;;;;;5092104;28;20545;-68
2022/02/09 19:41:43;;;;;;;21.83;7.73;;;6.10;99.70;;;;;;5071607;28;20815;-68
2022/02/09 19:46:49;;;;;;;23.87;11.60;;;6.30;99.70;;;;;;5073238;28;20462;-68
2022/02/09 19:49:30;;;;;;;27.33;11.20;;;6.20;99.70;;;;;;5088789;28;20479;-69
2022/02/09 19:52:09;;;;;;;20.97;10.10;;;6.10;99.70;;;;;;5091543;28;20456;-69
2022/02/09 19:54:46;;;;;;;21.77;8.80;;;6.00;99.70;;;;;;5091545;28;20438;-69
2022/02/09 19:57:13;;;;;;;21.23;9.33;;;5.90;99.70;;;;;;5090167;28;20945;-69
2022/02/09 19:59:41;;;;;;;26.27;11.67;;;5.80;99.70;;;;;;5070133;28;20438;-69
2022/02/09 20:02:11;;;;;;;28.07;11.93;;;5.80;99.70;;;;;;5087281;28;20541;-69
2022/02/09 20:04:38;;;;;;;16.57;7.50;;;5.70;99.70;;;;;;5090614;28;20474;-69
2022/02/09 20:07:07;;;;;;;13.50;5.83;;;5.70;99.70;;;;;;5085892;28;20554;-69
2022/02/09 20:09:34;;;;;;;16.77;7.03;;;6.10;99.70;;;;;;5088508;28;20460;-69
2022/02/09 20:12:01;;;;;;;15.67;6.83;;;6.50;99.70;;;;;;5090615;28;20442;-69
2022/02/09 20:14:29;;;;;;;14.07;6.87;;;6.70;99.70;;;;;;5090338;28;20510;-69
2022/02/09 20:16:55;;;;;;;21.50;8.20;;;6.60;99.70;;;;;;5090223;28;20513;-69
2022/02/09 20:19:22;;;;;;;20.97;9.93;;;6.60;99.70;;;;;;5084492;28;20841;-68
2022/02/09 20:21:54;;;;;;;20.70;8.50;;;6.50;99.70;;;;;;5086116;28;20484;-69
2022/02/09 20:24:22;;;;;;;16.00;7.17;;;6.50;99.70;;;;;;5087983;28;20525;-68
2022/02/09 20:26:52;;;;;;;17.03;8.20;;;6.50;99.70;;;;;;5088469;28;20485;-68
2022/02/09 20:29:27;;;;;;;19.43;8.43;;;6.30;99.70;;;;;;5088754;28;20437;-68
2022/02/09 20:32:06;;;;;;;24.10;8.33;;;6.30;99.70;;;;;;5089868;28;20826;-69
2022/02/09 20:34:39;;;;;;;19.03;8.53;;;6.40;99.70;;;;;;5089837;28;20448;-69
2022/02/09 20:37:07;;;;;;;19.97;8.33;;;6.40;99.70;;;;;;5089908;28;21015;-69
2022/02/09 20:39:41;;;;;;;17.87;8.00;;;6.40;99.70;;;;;;5090289;28;20905;-69
2022/02/09 20:42:14;;;;;;;17.37;8.27;;;6.40;99.70;;;;;;5090506;28;20479;-69
2022/02/09 20:44:48;;;;;;;23.03;7.63;;;6.30;99.70;;;;;;5088628;28;20963;-69
2022/02/09 20:47:15;;;;;;;21.60;7.80;;;6.30;99.70;;;;;;5088571;28;20465;-69
2022/02/09 20:49:42;;;;;;;15.23;7.10;;;6.30;99.70;;;;;;5090586;28;20477;-68
2022/02/09 20:52:11;;;;;;;19.40;8.13;;;6.30;99.70;;;;;;5090856;28;20445;-69
2022/02/09 20:54:39;;;;;;;16.13;7.37;;;6.20;99.70;;;;;;5090735;28;20556;-67
2022/02/09 20:57:06;;;;;;;16.33;7.00;;;6.20;99.70;;;;;;5090075;28;20477;-69
2022/02/09 20:59:39;;;;;;;14.93;6.77;;;6.10;99.70;;;;;;5090269;28;20471;-69
2022/02/09 21:02:19;;;;;;;15.97;6.50;;;6.10;99.70;;;;;;5094748;28;20464;-69
2022/02/09 21:04:50;;;;;;;17.57;8.80;;;6.00;99.70;;;;;;5090368;28;20454;-66
2022/02/09 21:07:24;;;;;;;17.40;8.57;;;5.90;99.70;;;;;;5088757;28;20468;-69
2022/02/09 21:09:59;;;;;;;22.50;9.20;;;5.90;99.70;;;;;;5095284;28;20548;-69
2022/02/09 21:12:33;;;;;;;19.00;8.97;;;5.90;99.70;;;;;;5089450;28;20540;-69
2022/02/09 21:15:21;;;;;;;15.27;7.70;;;5.80;99.70;;;;;;5083730;28;20446;-68
2022/02/09 21:18:11;;;;;;;20.67;8.33;;;5.70;99.70;;;;;;5089636;28;20851;-69
2022/02/09 21:21:02;;;;;;;18.20;7.13;;;5.60;99.70;;;;;;5089396;28;20438;-69
2022/02/09 21:24:03;;;;;;;16.40;7.97;;;5.50;99.70;;;;;;5093181;28;20434;-69
2022/02/09 21:26:50;;;;;;;17.90;7.80;;;5.40;99.70;;;;;;5091321;28;20550;-69
2022/02/09 21:46:06;;;;;;;28.17;13.00;;;5.10;99.70;;;;;;5089048;28;20490;-69
2022/02/09 21:54:08;;;;;;;39.10;15.53;;;5.00;99.70;;;;;;5093261;28;20956;-68
2022/02/09 21:56:43;;;;;;;40.60;14.47;;;5.10;99.70;;;;;;5092869;28;20861;-69
2022/02/09 21:59:34;;;;;;;36.23;14.77;;;5.10;99.70;;;;;;5089944;28;20476;-68
2022/02/09 22:21:43;;;;;;;22.80;10.17;;;5.10;99.70;;;;;;5089657;28;20467;-68
2022/02/09 22:27:01;;;;;;;25.27;11.33;;;5.10;99.70;;;;;;5086250;28;20850;-68
2022/02/09 22:30:00;;;;;;;23.33;10.47;;;5.10;99.70;;;;;;5093948;28;20438;-67
2022/02/09 22:33:28;;;;;;;21.53;10.00;;;5.10;99.70;;;;;;5091511;28;20941;-67